createdAt,value
2018-02-24T00:00:17.474Z,-4.50
2018-02-24T00:02:45.047Z,-4.60
2018-02-24T00:05:12.690Z,-4.60
2018-02-24T00:07:40.227Z,-4.60
2018-02-24T00:10:07.867Z,-4.60
2018-02-24T00:12:35.426Z,-4.60
2018-02-24T00:15:03.027Z,-4.70
2018-02-24T00:17:30.625Z,-4.70
2018-02-24T00:19:58.231Z,-4.70
2018-02-24T00:22:25.803Z,-4.80
2018-02-24T00:24:53.390Z,-4.80
2018-02-24T00:27:21.078Z,-4.80
2018-02-24T00:29:48.680Z,-4.80
2018-02-24T00:32:16.275Z,-4.90
2018-02-24T00:34:44.706Z,-4.90
2018-02-24T00:37:12.403Z,-4.90
2018-02-24T00:39:40.031Z,-4.90
2018-02-24T00:42:07.596Z,-4.90
2018-02-24T00:44:35.959Z,-4.90
2018-02-24T00:47:03.540Z,-5.00
2018-02-24T00:49:31.161Z,-4.90
2018-02-24T00:51:58.734Z,-5.00
2018-02-24T00:54:26.335Z,-4.90
2018-02-24T00:56:53.914Z,-4.90
2018-02-24T00:59:21.515Z,-5.00
2018-02-24T01:01:49.856Z,-5.00
2018-02-24T01:04:17.420Z,-5.00
2018-02-24T01:06:45.086Z,-5.00
2018-02-24T01:09:12.667Z,-5.00
2018-02-24T01:11:40.259Z,-5.00
2018-02-24T01:14:07.842Z,-5.00
2018-02-24T01:16:35.443Z,-5.10
2018-02-24T01:19:03.771Z,-5.10
2018-02-24T01:21:31.491Z,-5.20
2018-02-24T01:23:59.847Z,-5.20
2018-02-24T01:26:27.448Z,-5.30
2018-02-24T01:28:55.041Z,-5.20
2018-02-24T01:31:23.409Z,-5.30
2018-02-24T01:33:50.999Z,-5.30
2018-02-24T01:36:19.366Z,-5.30
2018-02-24T01:38:46.948Z,-5.40
2018-02-24T01:41:14.539Z,-5.30
2018-02-24T01:43:42.872Z,-5.30
2018-02-24T01:46:10.476Z,-5.40
2018-02-24T01:48:38.130Z,-5.30
2018-02-24T01:51:05.786Z,-5.30
2018-02-24T01:53:33.458Z,-5.40
2018-02-24T01:56:01.051Z,-5.40
2018-02-24T01:58:28.622Z,-5.40
2018-02-24T02:00:56.214Z,-5.40
2018-02-24T02:03:23.842Z,-5.40
2018-02-24T02:05:51.438Z,-5.40
2018-02-24T02:08:19.099Z,-5.50
2018-02-24T02:10:46.723Z,-5.40
2018-02-24T02:13:15.171Z,-5.40
2018-02-24T02:15:42.901Z,-5.50
2018-02-24T02:18:11.239Z,-5.50
2018-02-24T02:20:38.857Z,-5.50
2018-02-24T02:23:07.211Z,-5.50
2018-02-24T02:25:34.783Z,-5.50
2018-02-24T02:28:02.414Z,-5.40
2018-02-24T02:30:29.991Z,-5.50
2018-02-24T02:32:57.606Z,-5.50
2018-02-24T02:35:25.184Z,-5.50
2018-02-24T02:37:52.784Z,-5.50
2018-02-24T02:40:21.123Z,-5.50
2018-02-24T02:42:48.718Z,-5.60
2018-02-24T02:45:16.287Z,-5.50
2018-02-24T02:47:43.886Z,-5.50
2018-02-24T02:50:12.255Z,-5.50
2018-02-24T02:52:39.859Z,-5.60
2018-02-24T02:55:08.210Z,-5.60
2018-02-24T02:57:35.802Z,-5.60
2018-02-24T03:00:03.383Z,-5.60
2018-02-24T03:02:31.745Z,-5.60
2018-02-24T03:04:59.315Z,-5.60
2018-02-24T03:07:26.975Z,-5.60
2018-02-24T03:09:54.538Z,-5.60
2018-02-24T03:12:22.221Z,-5.60
2018-02-24T03:14:49.803Z,-5.60
2018-02-24T03:17:17.454Z,-5.60
2018-02-24T03:19:45.775Z,-5.70
2018-02-24T03:22:13.427Z,-5.70
2018-02-24T03:24:40.998Z,-5.70
2018-02-24T03:27:08.589Z,-5.70
2018-02-24T03:29:36.195Z,-5.70
2018-02-24T03:32:04.530Z,-5.70
2018-02-24T03:34:32.163Z,-5.80
2018-02-24T03:37:00.595Z,-5.70
2018-02-24T03:39:28.195Z,-5.80
2018-02-24T03:41:55.792Z,-5.80
2018-02-24T03:44:23.378Z,-5.80
2018-02-24T03:46:50.969Z,-5.80
2018-02-24T03:49:18.570Z,-5.80
2018-02-24T03:51:46.141Z,-5.80
2018-02-24T03:54:13.730Z,-5.80
2018-02-24T03:56:41.296Z,-5.80
2018-02-24T03:59:08.898Z,-5.80
2018-02-24T04:01:36.476Z,-5.80
2018-02-24T04:04:04.855Z,-5.80
2018-02-24T04:06:32.432Z,-5.80
2018-02-24T04:09:01.039Z,-5.80
2018-02-24T04:11:29.442Z,-5.80
2018-02-24T04:13:57.023Z,-5.90
2018-02-24T04:16:25.492Z,-5.80
2018-02-24T04:18:55.461Z,-5.80
2018-02-24T04:21:23.035Z,-5.90
2018-02-24T04:23:50.602Z,-5.90
2018-02-24T04:26:18.251Z,-5.90
2018-02-24T04:28:46.594Z,-5.90
2018-02-24T04:31:14.262Z,-5.90
2018-02-24T04:33:41.847Z,-5.90
2018-02-24T04:36:09.451Z,-5.90
2018-02-24T04:38:37.908Z,-5.90
2018-02-24T04:41:05.490Z,-6.00
2018-02-24T04:46:06.079Z,-5.90
2018-02-24T04:48:33.652Z,-5.90
2018-02-24T04:51:01.230Z,-6.00
2018-02-24T04:53:29.579Z,-5.90
2018-02-24T04:55:57.218Z,-6.00
2018-02-24T04:58:24.808Z,-5.90
2018-02-24T05:00:52.377Z,-5.90
2018-02-24T05:03:19.945Z,-5.90
2018-02-24T05:05:47.580Z,-5.90
2018-02-24T05:08:15.916Z,-5.90
2018-02-24T05:10:43.522Z,-6.00
2018-02-24T05:13:11.094Z,-6.00
2018-02-24T05:15:38.934Z,-5.90
2018-02-24T05:18:06.516Z,-6.00
2018-02-24T05:20:34.096Z,-6.00
2018-02-24T05:23:01.721Z,-6.00
2018-02-24T05:25:30.112Z,-6.00
2018-02-24T05:27:58.469Z,-6.00
2018-02-24T05:30:26.047Z,-6.10
2018-02-24T05:32:53.699Z,-6.10
2018-02-24T05:35:21.279Z,-6.00
2018-02-24T05:37:48.846Z,-6.00
2018-02-24T05:40:16.414Z,-6.00
2018-02-24T05:42:44.088Z,-6.00
2018-02-24T05:45:11.666Z,-6.00
2018-02-24T05:47:39.388Z,-6.10
2018-02-24T05:50:07.732Z,-6.10
2018-02-24T05:52:35.310Z,-6.10
2018-02-24T05:55:02.899Z,-6.10
2018-02-24T05:57:30.496Z,-6.10
2018-02-24T05:59:58.850Z,-6.10
2018-02-24T06:02:26.477Z,-6.20
2018-02-24T06:04:54.082Z,-6.10
2018-02-24T06:07:21.675Z,-6.10
2018-02-24T06:09:49.275Z,-6.10
2018-02-24T06:12:18.456Z,-6.10
2018-02-24T06:14:46.048Z,-6.20
2018-02-24T06:17:14.430Z,-6.10
2018-02-24T06:19:42.097Z,-6.20
2018-02-24T06:22:09.664Z,-6.10
2018-02-24T06:24:37.243Z,-6.10
2018-02-24T06:27:05.670Z,-6.10
2018-02-24T06:29:33.261Z,-6.20
2018-02-24T06:32:00.866Z,-6.20
2018-02-24T06:34:28.454Z,-6.20
2018-02-24T06:36:56.070Z,-6.10
2018-02-24T06:39:23.647Z,-6.10
2018-02-24T06:41:51.226Z,-6.10
2018-02-24T06:44:18.820Z,-6.10
2018-02-24T06:46:46.392Z,-6.10
2018-02-24T06:49:13.984Z,-6.10
2018-02-24T06:51:41.587Z,-6.10
2018-02-24T06:54:09.959Z,-6.00
2018-02-24T06:56:37.675Z,-6.10
2018-02-24T06:59:05.249Z,-6.00
2018-02-24T07:01:32.823Z,-6.00
2018-02-24T07:04:00.437Z,-6.00
2018-02-24T07:06:28.117Z,-6.00
2018-02-24T07:08:56.663Z,-6.00
2018-02-24T07:11:24.468Z,-5.90
2018-02-24T07:13:52.048Z,-5.90
2018-02-24T07:16:19.626Z,-5.90
2018-02-24T07:18:47.210Z,-5.80
2018-02-24T07:21:14.789Z,-5.80
2018-02-24T07:23:43.132Z,-5.80
2018-02-24T07:26:10.776Z,-5.80
2018-02-24T07:28:38.982Z,-5.70
2018-02-24T07:31:07.255Z,-5.70
2018-02-24T07:33:34.842Z,-5.60
2018-02-24T07:36:02.447Z,-5.50
2018-02-24T07:38:30.077Z,-5.50
2018-02-24T07:40:57.663Z,-5.40
2018-02-24T07:43:25.253Z,-5.40
2018-02-24T07:46:31.751Z,-5.30
2018-02-24T07:48:59.408Z,-5.30
2018-02-24T07:51:27.481Z,-5.20
2018-02-24T07:53:55.138Z,-5.20
2018-02-24T07:56:22.751Z,-5.10
2018-02-24T07:58:50.967Z,-5.00
2018-02-24T08:01:18.569Z,-5.00
2018-02-24T08:03:46.156Z,-4.90
2018-02-24T08:06:13.913Z,-4.90
2018-02-24T08:08:41.512Z,-4.90
2018-02-24T08:11:09.129Z,-4.80
2018-02-24T08:13:36.767Z,-4.70
2018-02-24T08:16:04.495Z,-4.70
2018-02-24T08:18:32.850Z,-4.60
2018-02-24T08:21:00.495Z,-4.60
2018-02-24T08:23:28.139Z,-4.50
2018-02-24T08:25:57.919Z,-4.40
2018-02-24T08:28:25.979Z,-4.40
2018-02-24T08:30:54.418Z,-4.20
2018-02-24T08:33:22.037Z,-4.30
2018-02-24T08:35:49.631Z,-4.20
2018-02-24T08:38:17.218Z,-4.10
2018-02-24T08:40:44.885Z,-4.00
2018-02-24T08:43:12.483Z,-4.00
2018-02-24T08:45:40.143Z,-3.90
2018-02-24T08:48:07.715Z,-3.80
2018-02-24T08:50:35.453Z,-3.80
2018-02-24T08:53:03.103Z,-3.70
2018-02-24T08:55:30.754Z,-3.60
2018-02-24T08:57:58.378Z,-3.50
2018-02-24T09:00:26.025Z,-3.50
2018-02-24T09:02:53.654Z,-3.40
2018-02-24T09:05:21.540Z,-3.30
2018-02-24T09:07:49.889Z,-3.20
2018-02-24T09:10:17.475Z,-3.20
2018-02-24T09:12:45.082Z,-3.10
2018-02-24T09:15:12.653Z,-3.20
2018-02-24T09:17:40.288Z,-3.10
2018-02-24T09:20:08.051Z,-3.00
2018-02-24T09:22:36.081Z,-3.00
2018-02-24T09:25:03.826Z,-2.90
2018-02-24T09:27:31.451Z,-2.80
2018-02-24T09:29:59.437Z,-2.70
2018-02-24T09:32:27.900Z,-2.50
2018-02-24T09:34:55.581Z,-2.60
2018-02-24T09:37:23.515Z,-2.50
2018-02-24T09:39:51.108Z,-2.40
2018-02-24T09:42:18.721Z,-2.30
2018-02-24T09:44:46.437Z,-2.20
2018-02-24T09:47:14.041Z,-2.20
2018-02-24T09:49:41.644Z,-2.10
2018-02-24T09:52:10.890Z,-2.10
2018-02-24T09:54:39.218Z,-2.00
2018-02-24T09:57:07.179Z,-1.90
2018-02-24T09:59:36.199Z,-1.70
2018-02-24T10:02:04.133Z,-1.80
2018-02-24T10:04:33.583Z,-1.70
2018-02-24T10:07:02.016Z,-1.50
2018-02-24T10:09:30.721Z,-1.60
2018-02-24T10:12:00.107Z,-1.40
2018-02-24T10:14:28.647Z,-1.30
2018-02-24T10:16:59.767Z,-1.40
2018-02-24T10:19:29.348Z,-1.20
2018-02-24T10:21:58.589Z,-1.20
2018-02-24T10:24:27.286Z,-1.10
2018-02-24T10:26:54.897Z,-1.00
2018-02-24T10:29:22.511Z,-1.00
2018-02-24T10:31:50.248Z,-0.90
2018-02-24T10:34:17.812Z,-0.80
2018-02-24T10:36:45.481Z,-0.80
2018-02-24T10:39:13.814Z,-0.70
2018-02-24T10:41:41.420Z,-0.70
2018-02-24T10:44:09.379Z,-0.60
2018-02-24T10:46:37.008Z,-0.50
2018-02-24T10:49:14.507Z,-0.30
2018-02-24T10:51:42.954Z,-0.20
2018-02-24T10:54:10.566Z,-0.30
2018-02-24T10:56:39.374Z,-0.30
2018-02-24T10:59:07.744Z,-0.30
2018-02-24T11:01:35.364Z,-0.40
2018-02-24T11:04:03.004Z,-0.30
2018-02-24T11:06:30.712Z,-0.40
2018-02-24T11:08:58.352Z,-0.40
2018-02-24T11:11:25.958Z,-0.30
2018-02-24T11:13:54.116Z,-0.30
2018-02-24T11:16:22.444Z,-0.30
2018-02-24T11:18:50.407Z,-0.30
2018-02-24T11:21:18.012Z,-0.30
2018-02-24T11:23:45.613Z,-0.20
2018-02-24T11:26:13.195Z,-0.10
2018-02-24T11:28:40.826Z,0.00
2018-02-24T11:31:08.462Z,0.10
2018-02-24T11:33:36.819Z,0.10
2018-02-24T11:36:04.390Z,0.10
2018-02-24T11:38:31.992Z,0.20
2018-02-24T11:40:59.610Z,0.40
2018-02-24T11:43:27.390Z,0.40
2018-02-24T11:45:55.851Z,0.40
2018-02-24T11:48:24.289Z,0.30
2018-02-24T11:50:52.892Z,0.30
2018-02-24T11:53:20.517Z,0.20
2018-02-24T11:55:50.993Z,0.30
2018-02-24T11:58:19.230Z,0.20
2018-02-24T12:00:47.372Z,0.20
2018-02-24T12:03:15.743Z,0.10
2018-02-24T12:05:44.294Z,0.20
2018-02-24T12:08:12.008Z,0.10
2018-02-24T12:10:39.586Z,0.20
2018-02-24T12:13:07.244Z,0.30
2018-02-24T12:15:34.840Z,0.30
2018-02-24T12:18:03.196Z,0.30
2018-02-24T12:20:30.785Z,0.30
2018-02-24T12:22:58.421Z,0.40
2018-02-24T12:25:26.772Z,0.40
2018-02-24T12:27:54.370Z,0.30
2018-02-24T12:30:22.723Z,0.40
2018-02-24T12:32:50.339Z,0.40
2018-02-24T12:35:18.753Z,0.40
2018-02-24T12:37:46.371Z,0.30
2018-02-24T12:40:13.949Z,0.40
2018-02-24T12:42:41.590Z,0.40
2018-02-24T12:45:09.169Z,0.30
2018-02-24T12:47:36.796Z,0.30
2018-02-24T12:50:05.186Z,0.20
2018-02-24T12:52:33.565Z,0.10
2018-02-24T12:55:01.505Z,0.10
2018-02-24T12:57:29.784Z,0.10
2018-02-24T12:59:59.097Z,0.10
2018-02-24T13:02:28.392Z,0.10
2018-02-24T13:04:57.791Z,0.10
2018-02-24T13:07:25.930Z,0.20
2018-02-24T13:09:53.888Z,0.20
2018-02-24T13:12:24.078Z,0.20
2018-02-24T13:14:52.510Z,0.30
2018-02-24T13:17:20.106Z,0.20
2018-02-24T13:22:46.440Z,0.20
2018-02-24T13:25:15.252Z,0.20
2018-02-24T13:27:44.934Z,0.10
2018-02-24T13:30:13.077Z,0.20
2018-02-24T13:32:46.955Z,0.50
2018-02-24T13:35:14.560Z,0.50
2018-02-24T13:37:43.571Z,1.00
2018-02-24T13:40:12.579Z,0.90
2018-02-24T13:42:41.015Z,1.10
2018-02-24T13:45:10.134Z,1.30
2018-02-24T13:47:40.257Z,1.20
2018-02-24T13:50:09.996Z,1.50
2018-02-24T13:52:38.307Z,1.40
2018-02-24T13:55:06.486Z,1.60
2018-02-24T13:57:34.636Z,1.70
2018-02-24T14:00:02.292Z,1.80
2018-02-24T14:02:30.326Z,1.80
2018-02-24T14:04:59.664Z,1.90
2018-02-24T14:07:29.079Z,1.90
2018-02-24T14:09:58.132Z,2.00
2018-02-24T14:12:27.473Z,2.00
2018-02-24T14:14:55.504Z,2.00
2018-02-24T14:17:23.584Z,1.80
2018-02-24T14:19:52.576Z,1.50
2018-02-24T14:22:21.328Z,1.40
2018-02-24T14:24:48.986Z,1.30
2018-02-24T14:27:17.784Z,1.30
2018-02-24T14:29:46.732Z,1.30
2018-02-24T14:32:16.491Z,1.40
2018-02-24T14:34:44.486Z,1.40
2018-02-24T14:37:12.284Z,1.50
2018-02-24T14:39:41.216Z,1.60
2018-02-24T14:42:09.891Z,1.80
2018-02-24T14:44:38.673Z,2.00
2018-02-24T14:47:07.749Z,2.20
2018-02-24T14:49:35.850Z,2.10
2018-02-24T14:52:04.222Z,2.20
2018-02-24T14:54:32.421Z,2.10
2018-02-24T14:57:00.700Z,2.00
2018-02-24T14:59:29.044Z,1.90
2018-02-24T15:01:58.438Z,1.70
2018-02-24T15:04:27.532Z,1.60
2018-02-24T15:06:56.717Z,1.40
2018-02-24T15:09:25.611Z,1.30
2018-02-24T15:11:53.784Z,1.30
2018-02-24T15:14:22.752Z,1.10
2018-02-24T15:16:50.850Z,1.10
2018-02-24T15:19:19.102Z,1.10
2018-02-24T15:21:47.535Z,1.20
2018-02-24T15:24:17.077Z,1.30
2018-02-24T15:26:45.264Z,1.30
2018-02-24T15:29:13.448Z,1.40
2018-02-24T15:31:42.852Z,1.40
2018-02-24T15:34:11.610Z,1.40
2018-02-24T15:36:40.037Z,1.30
2018-02-24T15:39:08.434Z,1.30
2018-02-24T15:41:37.424Z,1.30
2018-02-24T15:44:06.249Z,1.50
2018-02-24T15:46:34.529Z,1.40
2018-02-24T15:49:02.892Z,1.60
2018-02-24T15:51:32.767Z,1.60
2018-02-24T15:54:02.688Z,1.60
2018-02-24T15:56:30.919Z,1.60
2018-02-24T15:58:59.468Z,1.60
2018-02-24T16:01:28.223Z,1.60
2018-02-24T16:03:56.473Z,1.70
2018-02-24T16:06:25.441Z,1.50
2018-02-24T16:08:55.411Z,1.40
2018-02-24T16:11:23.498Z,1.50
2018-02-24T16:13:52.291Z,1.40
2018-02-24T16:16:20.994Z,1.30
2018-02-24T16:18:48.968Z,1.20
2018-02-24T16:21:17.217Z,1.10
2018-02-24T16:23:46.163Z,1.00
2018-02-24T16:26:14.167Z,1.00
2018-02-24T16:28:41.984Z,0.90
2018-02-24T16:31:10.348Z,0.70
2018-02-24T16:33:38.348Z,0.70
2018-02-24T16:36:06.632Z,0.60
2018-02-24T16:38:35.718Z,0.50
2018-02-24T16:41:03.368Z,0.40
2018-02-24T16:43:33.183Z,0.40
2018-02-24T16:46:01.196Z,0.30
2018-02-24T16:48:29.219Z,0.30
2018-02-24T16:50:56.863Z,0.20
2018-02-24T16:53:24.459Z,0.10
2018-02-24T16:55:52.038Z,0.00
2018-02-24T16:58:20.329Z,0.00
2018-02-24T17:00:49.537Z,-0.20
2018-02-24T17:03:17.696Z,-0.20
2018-02-24T17:05:46.705Z,-0.30
2018-02-24T17:08:14.352Z,-0.30
2018-02-24T17:10:41.929Z,-0.30
2018-02-24T17:13:10.184Z,-0.30
2018-02-24T17:15:37.972Z,-0.40
2018-02-24T17:18:05.679Z,-0.50
2018-02-24T17:20:34.508Z,-0.60
2018-02-24T17:23:02.838Z,-0.70
2018-02-24T17:25:31.300Z,-0.80
2018-02-24T17:28:00.582Z,-0.80
2018-02-24T17:30:28.206Z,-0.80
2018-02-24T17:32:56.164Z,-0.90
2018-02-24T17:35:23.916Z,-0.90
2018-02-24T17:37:52.504Z,-0.90
2018-02-24T17:40:20.075Z,-0.90
2018-02-24T17:42:48.722Z,-1.00
2018-02-24T17:45:16.320Z,-1.00
2018-02-24T17:47:44.526Z,-1.00
2018-02-24T17:50:12.149Z,-1.10
2018-02-24T17:52:39.723Z,-1.10
2018-02-24T17:55:08.012Z,-1.20
2018-02-24T17:57:35.647Z,-1.20
2018-02-24T18:00:03.226Z,-1.20
2018-02-24T18:02:31.561Z,-1.30
2018-02-24T18:04:59.714Z,-1.30
2018-02-24T18:07:27.541Z,-1.30
2018-02-24T18:09:55.126Z,-1.40
2018-02-24T18:12:23.266Z,-1.40
2018-02-24T18:14:50.880Z,-1.40
2018-02-24T18:17:18.506Z,-1.50
2018-02-24T18:19:46.140Z,-1.50
2018-02-24T18:22:13.716Z,-1.50
2018-02-24T18:24:42.374Z,-1.60
2018-02-24T18:27:12.211Z,-1.70
2018-02-24T18:29:40.492Z,-1.70
2018-02-24T18:32:08.162Z,-1.70
2018-02-24T18:34:36.495Z,-1.80
2018-02-24T18:37:04.085Z,-1.80
2018-02-24T18:39:31.651Z,-1.90
2018-02-24T18:42:00.172Z,-1.90
2018-02-24T18:44:27.903Z,-1.90
2018-02-24T18:46:55.499Z,-1.80
2018-02-24T18:49:23.157Z,-1.80
2018-02-24T18:51:50.743Z,-1.90
2018-02-24T18:54:18.320Z,-1.90
2018-02-24T18:56:50.205Z,-1.90
2018-02-24T18:59:18.882Z,-2.00
2018-02-24T19:01:46.670Z,-2.00
2018-02-24T19:04:15.361Z,-2.00
2018-02-24T19:06:43.955Z,-2.10
2018-02-24T19:09:11.676Z,-2.10
2018-02-24T19:11:39.692Z,-2.20
2018-02-24T19:14:08.027Z,-2.30
2018-02-24T19:16:35.586Z,-2.30
2018-02-24T19:19:03.175Z,-2.30
2018-02-24T19:21:30.839Z,-2.40
2018-02-24T19:23:59.029Z,-2.40
2018-02-24T19:26:28.496Z,-2.40
2018-02-24T19:28:56.856Z,-2.40
2018-02-24T19:31:24.430Z,-2.50
2018-02-24T19:33:52.003Z,-2.50
2018-02-24T19:36:19.648Z,-2.50
2018-02-24T19:38:47.207Z,-2.50
2018-02-24T19:41:16.110Z,-2.50
2018-02-24T19:43:43.730Z,-2.60
2018-02-24T19:46:11.292Z,-2.60
2018-02-24T19:48:39.316Z,-2.60
2018-02-24T19:51:07.648Z,-2.60
2018-02-24T20:17:31.600Z,-2.10
2018-02-24T20:42:06.307Z,-2.70
2018-02-24T20:44:35.350Z,-2.80
2018-02-24T20:47:03.437Z,-2.90
2018-02-24T20:49:31.628Z,-3.00
2018-02-24T20:51:59.771Z,-3.10
2018-02-24T20:54:28.651Z,-3.20
2018-02-24T20:56:57.464Z,-3.20
2018-02-24T20:59:27.212Z,-3.30
2018-02-24T21:01:55.260Z,-3.40
2018-02-24T21:04:23.393Z,-3.30
2018-02-24T21:06:51.513Z,-3.40
2018-02-24T21:09:19.907Z,-3.40
2018-02-24T21:11:47.580Z,-3.50
2018-02-24T21:14:15.452Z,-3.50
2018-02-24T21:16:43.514Z,-3.50
2018-02-24T21:19:11.678Z,-3.50
2018-02-24T21:21:39.893Z,-3.60
2018-02-24T21:24:07.522Z,-3.60
2018-02-24T21:26:36.428Z,-3.60
2018-02-24T21:29:04.367Z,-3.60
2018-02-24T21:31:32.410Z,-3.60
2018-02-24T21:34:01.812Z,-3.70
2018-02-24T21:36:29.984Z,-3.60
2018-02-24T21:38:58.079Z,-3.70
2018-02-24T21:41:26.940Z,-3.70
2018-02-24T21:43:55.674Z,-3.70
2018-02-24T21:46:23.748Z,-3.70
2018-02-24T21:48:51.310Z,-3.80
2018-02-24T21:51:19.464Z,-3.80
2018-02-24T21:53:47.092Z,-3.80
2018-02-24T21:56:15.296Z,-3.80
2018-02-24T21:58:42.913Z,-3.80
2018-02-24T22:01:10.916Z,-3.90
2018-02-24T22:03:38.910Z,-3.90
2018-02-24T22:06:07.116Z,-3.90
2018-02-24T22:08:35.101Z,-3.90
2018-02-24T22:11:03.243Z,-3.90
2018-02-24T22:13:32.024Z,-4.00
2018-02-24T22:16:00.124Z,-4.00
2018-02-24T22:18:28.902Z,-4.00
2018-02-24T22:20:57.694Z,-4.10
2018-02-24T22:23:26.116Z,-4.10
2018-02-24T22:25:54.265Z,-4.10
2018-02-24T22:28:22.774Z,-4.10
2018-02-24T22:30:50.863Z,-4.10
2018-02-24T22:33:19.824Z,-4.10
2018-02-24T22:35:48.256Z,-4.20
2018-02-24T22:38:16.340Z,-4.20
2018-02-24T22:40:44.582Z,-4.20
2018-02-24T22:43:12.751Z,-4.30
2018-02-24T22:45:42.086Z,-4.30
2018-02-24T22:48:15.745Z,-4.30
2018-02-24T22:50:44.820Z,-4.30
2018-02-24T22:53:14.933Z,-4.40
2018-02-24T22:55:44.209Z,-4.40
2018-02-24T22:58:13.075Z,-4.40
2018-02-24T23:00:42.011Z,-4.50
2018-02-24T23:03:12.097Z,-4.50
2018-02-24T23:05:40.533Z,-4.50
2018-02-24T23:08:08.878Z,-4.50
2018-02-24T23:10:36.909Z,-4.50
2018-02-24T23:13:05.725Z,-4.60
2018-02-24T23:15:34.582Z,-4.60
2018-02-24T23:18:03.694Z,-4.70
2018-02-24T23:20:31.867Z,-4.60
2018-02-24T23:22:59.955Z,-4.70
2018-02-24T23:25:28.248Z,-4.70
2018-02-24T23:27:57.746Z,-4.70
2018-02-24T23:30:25.767Z,-4.70
2018-02-24T23:32:54.933Z,-4.80
2018-02-24T23:35:24.387Z,-4.80
2018-02-24T23:37:52.417Z,-4.80
2018-02-24T23:40:20.355Z,-4.80
2018-02-24T23:42:47.955Z,-4.80
2018-02-24T23:45:15.519Z,-4.80
2018-02-24T23:47:43.141Z,-4.80
2018-02-24T23:50:11.477Z,-4.80
2018-02-24T23:52:39.097Z,-4.90
2018-02-24T23:55:07.423Z,-4.90
2018-02-24T23:57:35.244Z,-5.00
